Time;durP1;ratioP1;P1;durP2;ratioP2;P2;SDS_P1;SDS_P2;PMS_P1;PMS_P2;Temp;Humidity;BMP_temperature;BMP_pressure;BME280_temperature;BME280_humidity;BME280_pressure;Samples;Min_cycle;Max_cycle;Signal;HPM_P1;HPM_P2
2022/06/18 00:00:35;;;;;;;2.50;2.30;;;;;;;;;;5067905;28;24465;-46
2022/06/18 00:03:00;;;;;;;2.60;2.40;;;;;;;;;;5060274;28;24418;-46
2022/06/18 00:05:25;;;;;;;2.90;2.60;;;;;;;;;;5068853;28;24556;-46
2022/06/18 00:07:52;;;;;;;2.67;2.47;;;;;;;;;;5068126;28;25048;-45
2022/06/18 00:10:19;;;;;;;2.60;2.40;;;;;;;;;;5066103;28;24418;-46
2022/06/18 00:15:31;;;;;;;2.70;2.50;;;;;;;;;;5067174;28;24425;-46
2022/06/18 00:17:56;;;;;;;2.40;2.20;;;;;;;;;;5067123;28;24484;-46
2022/06/18 00:20:23;;;;;;;2.70;2.20;;;;;;;;;;5067188;28;24434;-46
2022/06/18 00:22:50;;;;;;;2.60;2.40;;;;;;;;;;5066904;28;24545;-47
2022/06/18 00:25:25;;;;;;;2.80;2.50;;;;;;;;;;5064364;28;24526;-47
2022/06/18 00:27:50;;;;;;;2.40;2.20;;;;;;;;;;5049264;28;24463;-46
2022/06/18 00:30:20;;;;;;;2.40;2.30;;;;;;;;;;5063744;28;24481;-46
2022/06/18 00:32:45;;;;;;;2.30;2.20;;;;;;;;;;5053151;28;24429;-48
2022/06/18 00:35:12;;;;;;;3.40;2.30;;;;;;;;;;5068295;28;24800;-48
2022/06/18 00:37:37;;;;;;;2.60;2.40;;;;;;;;;;5067632;28;24417;-46
2022/06/18 00:40:10;;;;;;;2.50;2.30;;;;;;;;;;5065934;28;24472;-47
2022/06/18 00:42:37;;;;;;;2.30;2.20;;;;;;;;;;5068088;28;24395;-46
2022/06/18 00:45:02;;;;;;;2.60;2.40;;;;;;;;;;5067075;28;24438;-46
2022/06/18 00:47:27;;;;;;;2.60;2.42;;;;;;;;;;5068556;28;24419;-47
2022/06/18 00:49:57;;;;;;;2.75;2.40;;;;;;;;;;5066887;28;24518;-46
2022/06/18 00:52:39;;;;;;;2.60;2.40;;;;;;;;;;5068307;28;24407;-47
2022/06/18 00:55:10;;;;;;;2.70;2.50;;;;;;;;;;5067070;28;24426;-46
2022/06/18 00:57:40;;;;;;;2.83;2.53;;;;;;;;;;5067112;28;24518;-46
2022/06/18 01:00:14;;;;;;;2.70;2.50;;;;;;;;;;5067064;28;24476;-45
2022/06/18 01:02:41;;;;;;;2.53;2.35;;;;;;;;;;5068508;28;24387;-47
2022/06/18 01:05:27;;;;;;;2.60;2.40;;;;;;;;;;5065639;28;25205;-46
2022/06/18 01:07:57;;;;;;;2.30;2.20;;;;;;;;;;5067807;28;25045;-47
2022/06/18 01:10:29;;;;;;;2.85;2.50;;;;;;;;;;5068136;28;24411;-47
2022/06/18 01:12:55;;;;;;;2.70;2.40;;;;;;;;;;5068250;28;25034;-46
2022/06/18 01:15:21;;;;;;;3.30;3.00;;;;;;;;;;5068263;28;24502;-46
2022/06/18 01:17:48;;;;;;;4.00;3.70;;;;;;;;;;5067757;28;24618;-46
2022/06/18 01:20:13;;;;;;;3.30;3.00;;;;;;;;;;5068573;28;24399;-46
2022/06/18 01:22:44;;;;;;;2.47;2.38;;;;;;;;;;5066516;28;24477;-46
2022/06/18 01:25:09;;;;;;;2.70;2.50;;;;;;;;;;5064095;28;24425;-46
2022/06/18 01:27:35;;;;;;;2.35;2.20;;;;;;;;;;5066384;28;24423;-46
2022/06/18 01:30:14;;;;;;;2.80;2.60;;;;;;;;;;5067142;28;24787;-46
2022/06/18 01:32:39;;;;;;;2.83;2.63;;;;;;;;;;5068239;28;24888;-46
2022/06/18 01:35:05;;;;;;;2.80;2.60;;;;;;;;;;5067546;28;24421;-46
2022/06/18 01:37:30;;;;;;;3.00;2.67;;;;;;;;;;5066238;28;24419;-46
2022/06/18 01:39:56;;;;;;;3.00;2.80;;;;;;;;;;5065924;28;24425;-46
2022/06/18 01:42:26;;;;;;;3.20;2.63;;;;;;;;;;5065828;28;24521;-45
2022/06/18 01:44:55;;;;;;;2.72;2.53;;;;;;;;;;5064049;28;24443;-45
2022/06/18 01:47:20;;;;;;;2.90;2.70;;;;;;;;;;5065343;28;24735;-45
2022/06/18 01:49:51;;;;;;;2.60;2.40;;;;;;;;;;5065803;28;24454;-45
2022/06/18 01:52:18;;;;;;;3.03;2.70;;;;;;;;;;5066695;28;24446;-45
2022/06/18 01:54:45;;;;;;;3.00;2.60;;;;;;;;;;5066772;28;24429;-46
2022/06/18 01:57:16;;;;;;;2.70;2.50;;;;;;;;;;5063903;28;24846;-46
2022/06/18 01:59:44;;;;;;;2.85;2.65;;;;;;;;;;5064210;28;24391;-46
2022/06/18 02:02:09;;;;;;;3.22;2.75;;;;;;;;;;5063887;28;24424;-47
2022/06/18 02:04:35;;;;;;;2.60;2.40;;;;;;;;;;5066980;28;24497;-48
2022/06/18 02:07:01;;;;;;;3.00;2.70;;;;;;;;;;5066428;28;24431;-46
2022/06/18 02:09:29;;;;;;;2.90;2.70;;;;;;;;;;5064464;28;24422;-46
2022/06/18 02:11:55;;;;;;;2.85;2.65;;;;;;;;;;5065391;28;24410;-46
2022/06/18 02:14:21;;;;;;;3.00;2.78;;;;;;;;;;5065211;28;24518;-47
2022/06/18 02:16:46;;;;;;;3.15;2.85;;;;;;;;;;5057549;28;24514;-45
2022/06/18 02:19:12;;;;;;;2.90;2.60;;;;;;;;;;5057319;28;24453;-45
2022/06/18 02:21:42;;;;;;;3.20;2.90;;;;;;;;;;5066060;28;24805;-45
2022/06/18 02:24:07;;;;;;;2.83;2.63;;;;;;;;;;5063850;28;25037;-46
2022/06/18 02:26:33;;;;;;;3.67;2.70;;;;;;;;;;5064630;28;24439;-46
2022/06/18 02:28:59;;;;;;;2.97;2.70;;;;;;;;;;5060792;28;24431;-45
2022/06/18 02:31:26;;;;;;;2.95;2.75;;;;;;;;;;5065361;28;24465;-46
2022/06/18 02:33:56;;;;;;;2.80;2.60;;;;;;;;;;5063576;28;26116;-46
2022/06/18 02:36:28;;;;;;;3.65;2.70;;;;;;;;;;5047184;28;25028;-45
2022/06/18 02:38:58;;;;;;;2.90;2.70;;;;;;;;;;5064883;28;24418;-46
2022/06/18 02:41:23;;;;;;;3.08;2.88;;;;;;;;;;5065173;28;24442;-46
2022/06/18 02:43:49;;;;;;;3.03;2.83;;;;;;;;;;5060591;28;24445;-46
2022/06/18 02:46:14;;;;;;;3.67;3.37;;;;;;;;;;5065633;28;25023;-46
2022/06/18 02:48:40;;;;;;;3.10;2.90;;;;;;;;;;5064931;28;24473;-47
2022/06/18 02:51:06;;;;;;;3.10;2.90;;;;;;;;;;5067128;28;24425;-46
2022/06/18 02:53:32;;;;;;;3.30;3.10;;;;;;;;;;5065099;28;24422;-46
2022/06/18 02:55:59;;;;;;;3.10;2.90;;;;;;;;;;5064654;28;24426;-46
2022/06/18 02:58:26;;;;;;;3.30;3.10;;;;;;;;;;5065967;28;24456;-46
2022/06/18 03:00:53;;;;;;;3.10;2.90;;;;;;;;;;5072754;28;24980;-46
2022/06/18 03:03:19;;;;;;;2.80;2.60;;;;;;;;;;5072705;28;24781;-48
2022/06/18 03:05:44;;;;;;;3.20;3.00;;;;;;;;;;5071414;28;24467;-46
2022/06/18 03:08:10;;;;;;;3.00;2.80;;;;;;;;;;5072617;28;24426;-46
2022/06/18 03:13:19;;;;;;;3.00;2.80;;;;;;;;;;5072464;28;24456;-46
2022/06/18 03:15:45;;;;;;;3.00;2.80;;;;;;;;;;5071943;28;24427;-46
2022/06/18 03:18:10;;;;;;;3.20;3.00;;;;;;;;;;5067098;28;24833;-46
2022/06/18 03:20:41;;;;;;;3.15;2.85;;;;;;;;;;5071389;28;24518;-46
2022/06/18 03:23:09;;;;;;;3.47;3.17;;;;;;;;;;5071723;28;24511;-46
2022/06/18 03:25:34;;;;;;;3.60;2.88;;;;;;;;;;5073107;28;24967;-46
2022/06/18 03:27:59;;;;;;;4.70;3.23;;;;;;;;;;5071514;28;24434;-46
2022/06/18 03:30:25;;;;;;;3.30;3.10;;;;;;;;;;5069570;28;24416;-46
2022/06/18 03:32:50;;;;;;;3.50;3.20;;;;;;;;;;5072278;28;24410;-46
2022/06/18 03:35:15;;;;;;;3.40;3.10;;;;;;;;;;5072285;28;24426;-46
2022/06/18 03:37:40;;;;;;;3.10;2.80;;;;;;;;;;5072078;28;24480;-46
2022/06/18 03:40:06;;;;;;;3.13;2.93;;;;;;;;;;5073484;28;24777;-46
2022/06/18 03:42:31;;;;;;;3.57;3.27;;;;;;;;;;5070383;28;24522;-46
2022/06/18 03:44:56;;;;;;;3.38;3.08;;;;;;;;;;5070023;28;24443;-46
2022/06/18 03:47:23;;;;;;;3.22;2.92;;;;;;;;;;5071174;28;24426;-45
2022/06/18 03:49:48;;;;;;;3.35;3.05;;;;;;;;;;5072090;28;24518;-46
2022/06/18 03:52:13;;;;;;;3.72;3.00;;;;;;;;;;5072228;28;25243;-47
2022/06/18 03:54:38;;;;;;;3.30;3.10;;;;;;;;;;5071329;28;24419;-47
2022/06/18 03:57:03;;;;;;;3.20;2.90;;;;;;;;;;5072001;28;24496;-47
2022/06/18 03:59:28;;;;;;;3.17;2.80;;;;;;;;;;5071949;28;25103;-47
2022/06/18 04:01:54;;;;;;;3.23;2.93;;;;;;;;;;5063609;28;24569;-47
2022/06/18 04:04:19;;;;;;;2.75;2.55;;;;;;;;;;5070488;28;24421;-45
2022/06/18 04:06:44;;;;;;;2.83;2.53;;;;;;;;;;5063634;28;24453;-46
2022/06/18 04:09:10;;;;;;;3.00;2.80;;;;;;;;;;5071318;28;24411;-45
2022/06/18 04:11:36;;;;;;;3.00;2.80;;;;;;;;;;5066037;28;24491;-45
2022/06/18 04:14:03;;;;;;;2.95;2.75;;;;;;;;;;5069693;28;24398;-45
2022/06/18 04:16:28;;;;;;;2.70;2.50;;;;;;;;;;5067610;28;24419;-45
2022/06/18 04:18:53;;;;;;;2.60;2.40;;;;;;;;;;5063803;28;24484;-45
2022/06/18 04:21:19;;;;;;;2.50;2.40;;;;;;;;;;5068003;28;24523;-47
2022/06/18 04:23:44;;;;;;;2.30;2.10;;;;;;;;;;5068915;28;24556;-46
2022/06/18 04:26:09;;;;;;;2.60;2.40;;;;;;;;;;5069014;28;24579;-45
2022/06/18 04:28:35;;;;;;;2.70;2.50;;;;;;;;;;5069321;28;24390;-46
2022/06/18 04:31:00;;;;;;;3.00;2.80;;;;;;;;;;5073608;28;24496;-46
2022/06/18 04:33:26;;;;;;;2.80;2.50;;;;;;;;;;5066716;28;24426;-47
2022/06/18 04:35:52;;;;;;;2.97;2.60;;;;;;;;;;5068496;28;24837;-47
2022/06/18 04:38:17;;;;;;;2.90;2.60;;;;;;;;;;5071725;28;24513;-47
2022/06/18 04:40:42;;;;;;;2.70;2.30;;;;;;;;;;5062224;28;24595;-46
2022/06/18 04:43:09;;;;;;;3.60;2.70;;;;;;;;;;5068728;28;24427;-46
2022/06/18 04:45:35;;;;;;;3.08;2.88;;;;;;;;;;5087096;28;24425;-46
2022/06/18 04:48:00;;;;;;;3.08;2.88;;;;;;;;;;5078207;28;24849;-46
2022/06/18 04:50:33;;;;;;;2.90;2.70;;;;;;;;;;5070004;28;24473;-45
2022/06/18 04:52:58;;;;;;;2.80;2.60;;;;;;;;;;5066360;28;24418;-46
2022/06/18 04:55:23;;;;;;;2.63;2.43;;;;;;;;;;5067878;28;24415;-46
2022/06/18 04:57:48;;;;;;;2.40;2.30;;;;;;;;;;5062102;28;24446;-47
2022/06/18 05:00:14;;;;;;;2.80;2.60;;;;;;;;;;5067473;28;24438;-46
2022/06/18 05:02:39;;;;;;;2.70;2.50;;;;;;;;;;5068421;28;24407;-46
2022/06/18 05:05:07;;;;;;;2.83;2.60;;;;;;;;;;5068418;28;24510;-46
2022/06/18 05:07:32;;;;;;;6.22;3.10;;;;;;;;;;5068238;28;24398;-46
2022/06/18 05:09:58;;;;;;;2.80;2.60;;;;;;;;;;5068628;28;24391;-46
2022/06/18 05:12:23;;;;;;;2.70;2.50;;;;;;;;;;5068690;28;24978;-46
2022/06/18 05:14:48;;;;;;;3.00;2.80;;;;;;;;;;5068060;28;24460;-46
2022/06/18 05:17:27;;;;;;;2.60;2.40;;;;;;;;;;5063184;28;24426;-46
2022/06/18 05:19:52;;;;;;;2.65;2.45;;;;;;;;;;5068080;28;24410;-46
2022/06/18 05:22:17;;;;;;;3.20;2.30;;;;;;;;;;5067093;28;24403;-46
2022/06/18 05:24:43;;;;;;;2.20;2.10;;;;;;;;;;5067967;28;24923;-46
2022/06/18 05:27:16;;;;;;;3.00;2.80;;;;;;;;;;5069534;28;24472;-46
2022/06/18 05:29:41;;;;;;;2.30;2.20;;;;;;;;;;5067192;28;24481;-46
2022/06/18 05:32:06;;;;;;;2.60;2.40;;;;;;;;;;5067830;28;24768;-46
2022/06/18 05:34:31;;;;;;;2.97;2.10;;;;;;;;;;5067218;28;24506;-46
2022/06/18 05:36:56;;;;;;;3.53;2.60;;;;;;;;;;5068201;28;24403;-47
2022/06/18 05:39:22;;;;;;;3.40;2.60;;;;;;;;;;5067325;28;24781;-47
2022/06/18 05:41:47;;;;;;;2.22;2.13;;;;;;;;;;5067585;28;24472;-45
2022/06/18 05:44:12;;;;;;;2.63;2.43;;;;;;;;;;5066561;28;24442;-46
2022/06/18 05:46:37;;;;;;;2.40;2.30;;;;;;;;;;5066688;28;24483;-46
2022/06/18 05:49:03;;;;;;;2.25;2.10;;;;;;;;;;5067193;28;24534;-46
2022/06/18 05:51:28;;;;;;;2.50;2.30;;;;;;;;;;5067603;28;24394;-47
2022/06/18 05:53:53;;;;;;;2.30;2.20;;;;;;;;;;5065812;28;24450;-47
2022/06/18 05:56:18;;;;;;;2.20;2.10;;;;;;;;;;5067744;28;24758;-46
2022/06/18 05:58:43;;;;;;;2.30;2.10;;;;;;;;;;5064816;28;24422;-47
2022/06/18 06:01:08;;;;;;;2.77;2.57;;;;;;;;;;5083834;28;24402;-47
2022/06/18 06:03:34;;;;;;;2.40;2.30;;;;;;;;;;5070013;28;24422;-47
2022/06/18 06:05:59;;;;;;;2.30;2.10;;;;;;;;;;5087601;28;24460;-46
2022/06/18 06:08:25;;;;;;;2.38;2.15;;;;;;;;;;5066556;28;24422;-47
2022/06/18 06:13:34;;;;;;;2.50;2.30;;;;;;;;;;5064573;28;24409;-46
2022/06/18 06:15:59;;;;;;;2.38;2.20;;;;;;;;;;5069600;28;24422;-46
2022/06/18 06:18:24;;;;;;;2.50;2.30;;;;;;;;;;5057506;28;24472;-46
2022/06/18 06:20:51;;;;;;;2.20;2.00;;;;;;;;;;5072130;28;25183;-47
2022/06/18 06:23:16;;;;;;;2.45;2.35;;;;;;;;;;5067063;28;24723;-46
2022/06/18 06:25:43;;;;;;;2.45;2.25;;;;;;;;;;5069338;28;24547;-46
2022/06/18 06:28:12;;;;;;;2.45;2.03;;;;;;;;;;5072311;28;24421;-45
2022/06/18 06:30:38;;;;;;;2.20;2.10;;;;;;;;;;5071543;28;24415;-46
2022/06/18 06:33:03;;;;;;;2.60;2.40;;;;;;;;;;5066630;28;24418;-46
2022/06/18 06:35:28;;;;;;;2.33;2.23;;;;;;;;;;5079437;28;24820;-46
2022/06/18 06:37:53;;;;;;;2.70;2.50;;;;;;;;;;5070451;28;24437;-45
2022/06/18 06:40:19;;;;;;;2.30;2.10;;;;;;;;;;5064163;28;24733;-46
2022/06/18 06:42:59;;;;;;;2.00;1.80;;;;;;;;;;5069343;28;25022;-45
2022/06/18 06:45:26;;;;;;;2.60;2.40;;;;;;;;;;5069264;28;24449;-45
2022/06/18 06:47:52;;;;;;;2.33;2.15;;;;;;;;;;5071226;28;24434;-46
2022/06/18 06:50:18;;;;;;;2.10;2.00;;;;;;;;;;5061758;28;24786;-46
2022/06/18 06:52:43;;;;;;;2.42;2.00;;;;;;;;;;5065838;28;24480;-47
2022/06/18 06:57:57;;;;;;;1.90;1.80;;;;;;;;;;5067236;28;24422;-46
2022/06/18 07:00:23;;;;;;;2.50;2.20;;;;;;;;;;5067078;28;24921;-47
2022/06/18 07:02:48;;;;;;;2.35;2.15;;;;;;;;;;5063903;28;24413;-46
2022/06/18 07:05:13;;;;;;;2.50;2.30;;;;;;;;;;5063358;28;24434;-47
2022/06/18 07:07:38;;;;;;;2.95;2.17;;;;;;;;;;5063767;28;24920;-47
2022/06/18 07:10:04;;;;;;;2.10;2.00;;;;;;;;;;5066765;28;25007;-46
2022/06/18 07:12:29;;;;;;;2.10;2.00;;;;;;;;;;5066935;28;24383;-47
2022/06/18 07:14:54;;;;;;;3.10;2.30;;;;;;;;;;5066261;28;24482;-46
2022/06/18 07:17:19;;;;;;;2.92;1.95;;;;;;;;;;5066849;28;24849;-46
2022/06/18 07:19:45;;;;;;;2.10;2.00;;;;;;;;;;5066450;28;24387;-46
2022/06/18 07:22:10;;;;;;;2.30;2.10;;;;;;;;;;5065468;28;24721;-47
2022/06/18 07:24:36;;;;;;;2.70;2.10;;;;;;;;;;5066690;28;25014;-45
2022/06/18 07:27:01;;;;;;;3.10;2.30;;;;;;;;;;5065201;28;24431;-46
2022/06/18 07:29:26;;;;;;;1.90;1.80;;;;;;;;;;5065326;28;24426;-46
2022/06/18 07:31:51;;;;;;;2.00;1.80;;;;;;;;;;5066473;28;24505;-46
2022/06/18 07:34:17;;;;;;;2.00;1.80;;;;;;;;;;5065615;28;24569;-46
2022/06/18 07:36:42;;;;;;;2.00;1.70;;;;;;;;;;5066135;28;24432;-46
2022/06/18 07:39:07;;;;;;;1.80;1.70;;;;;;;;;;5065698;28;24494;-46
2022/06/18 07:41:35;;;;;;;2.50;1.80;;;;;;;;;;5066396;28;24450;-46
2022/06/18 07:44:01;;;;;;;2.08;1.98;;;;;;;;;;5066117;28;24505;-46
2022/06/18 07:46:26;;;;;;;1.70;1.60;;;;;;;;;;5066398;28;24549;-46
2022/06/18 07:48:51;;;;;;;2.00;1.90;;;;;;;;;;5070296;28;25010;-47
2022/06/18 07:51:16;;;;;;;2.08;1.90;;;;;;;;;;5069055;28;24422;-46
2022/06/18 07:53:43;;;;;;;1.83;1.73;;;;;;;;;;5068704;28;24430;-47
2022/06/18 07:56:08;;;;;;;1.80;1.70;;;;;;;;;;5066530;28;24433;-46
2022/06/18 07:58:34;;;;;;;2.00;1.60;;;;;;;;;;5067734;28;24940;-47
2022/06/18 08:00:59;;;;;;;2.20;1.80;;;;;;;;;;5068770;28;24414;-46
2022/06/18 08:03:24;;;;;;;1.80;1.70;;;;;;;;;;5069756;28;24793;-46
2022/06/18 08:05:51;;;;;;;2.10;1.80;;;;;;;;;;5067595;28;24577;-46
2022/06/18 08:08:16;;;;;;;2.83;1.63;;;;;;;;;;5065756;28;24418;-46
2022/06/18 08:10:42;;;;;;;1.73;1.63;;;;;;;;;;5072660;28;24694;-47
2022/06/18 08:13:07;;;;;;;2.60;1.70;;;;;;;;;;5076813;28;24523;-45
2022/06/18 08:15:33;;;;;;;2.00;1.75;;;;;;;;;;5056312;28;24463;-45
2022/06/18 08:17:58;;;;;;;2.10;1.80;;;;;;;;;;5066327;28;24975;-46
2022/06/18 08:20:24;;;;;;;2.00;1.83;;;;;;;;;;5067406;28;24548;-47
2022/06/18 08:22:50;;;;;;;1.70;1.60;;;;;;;;;;5061874;28;24425;-46
2022/06/18 08:25:17;;;;;;;1.80;1.70;;;;;;;;;;5053579;28;24426;-47
2022/06/18 08:27:42;;;;;;;1.80;1.70;;;;;;;;;;5068914;28;24391;-45
2022/06/18 08:30:08;;;;;;;2.10;1.77;;;;;;;;;;5068434;28;24445;-45
2022/06/18 08:32:33;;;;;;;1.80;1.70;;;;;;;;;;5069093;28;24506;-45
2022/06/18 08:34:59;;;;;;;4.50;1.80;;;;;;;;;;5067595;28;24947;-46
2022/06/18 08:37:24;;;;;;;1.77;1.67;;;;;;;;;;5067018;28;24414;-45
2022/06/18 08:39:49;;;;;;;2.90;1.80;;;;;;;;;;5067402;28;24466;-45
2022/06/18 08:42:18;;;;;;;1.80;1.70;;;;;;;;;;5067391;28;24425;-45
2022/06/18 08:44:46;;;;;;;1.80;1.70;;;;;;;;;;5069299;28;24446;-45
2022/06/18 08:47:21;;;;;;;1.80;1.70;;;;;;;;;;5061599;28;25690;-46
2022/06/18 08:50:00;;;;;;;2.17;1.70;;;;;;;;;;5067218;28;22394;-45
2022/06/18 08:52:40;;;;;;;1.77;1.67;;;;;;;;;;5066160;28;24422;-45
2022/06/18 08:55:23;;;;;;;1.80;1.70;;;;;;;;;;5067851;28;24419;-45
2022/06/18 08:58:00;;;;;;;1.80;1.70;;;;;;;;;;5061772;28;24423;-45
2022/06/18 09:00:33;;;;;;;2.00;1.80;;;;;;;;;;5067353;28;24423;-45
2022/06/18 09:03:04;;;;;;;2.20;1.83;;;;;;;;;;5064911;28;24544;-46
2022/06/18 09:05:47;;;;;;;1.97;1.80;;;;;;;;;;5067541;28;24419;-46
2022/06/18 09:08:18;;;;;;;1.90;1.80;;;;;;;;;;5048459;28;24391;-45
2022/06/18 09:11:09;;;;;;;2.17;1.60;;;;;;;;;;5057923;28;24422;-46
2022/06/18 09:13:38;;;;;;;2.10;2.00;;;;;;;;;;5063154;28;24530;-46
2022/06/18 09:16:06;;;;;;;1.90;1.80;;;;;;;;;;5064808;28;25008;-46
2022/06/18 09:18:37;;;;;;;2.33;1.88;;;;;;;;;;5066821;28;24968;-45
2022/06/18 09:21:07;;;;;;;2.00;1.80;;;;;;;;;;5058914;28;25046;-46
2022/06/18 09:23:41;;;;;;;2.00;1.80;;;;;;;;;;5065922;28;25179;-45
2022/06/18 09:26:09;;;;;;;1.83;1.73;;;;;;;;;;5060218;28;24451;-45
2022/06/18 09:28:37;;;;;;;1.87;1.77;;;;;;;;;;5065753;28;24951;-46
2022/06/18 09:31:09;;;;;;;2.00;1.70;;;;;;;;;;5059662;28;24481;-47
2022/06/18 09:33:38;;;;;;;1.63;1.53;;;;;;;;;;5063341;28;24429;-46
2022/06/18 09:36:13;;;;;;;2.50;1.92;;;;;;;;;;5059176;28;25027;-46
2022/06/18 09:38:44;;;;;;;2.90;1.80;;;;;;;;;;5065972;28;24426;-46
2022/06/18 09:41:24;;;;;;;1.80;1.70;;;;;;;;;;5057459;28;24526;-46
2022/06/18 09:43:57;;;;;;;2.80;1.95;;;;;;;;;;5063325;28;24528;-46
2022/06/18 09:46:24;;;;;;;1.90;1.80;;;;;;;;;;5066562;28;24507;-46
2022/06/18 09:48:50;;;;;;;1.90;1.80;;;;;;;;;;5066180;28;24486;-47
2022/06/18 09:51:19;;;;;;;4.67;1.90;;;;;;;;;;5059223;28;24510;-45
2022/06/18 09:53:44;;;;;;;1.80;1.70;;;;;;;;;;5067872;28;24916;-46
2022/06/18 09:56:14;;;;;;;2.63;1.70;;;;;;;;;;5063654;28;25003;-47
2022/06/18 09:58:42;;;;;;;1.90;1.70;;;;;;;;;;5065069;28;24403;-48
2022/06/18 10:01:12;;;;;;;2.10;1.40;;;;;;;;;;5054762;28;24427;-47
2022/06/18 10:09:09;;;;;;;1.90;1.80;;;;;;;;;;5066813;28;24418;-46
2022/06/18 10:11:35;;;;;;;1.87;1.60;;;;;;;;;;5066460;28;24447;-46
2022/06/18 10:14:10;;;;;;;2.00;1.70;;;;;;;;;;5066319;28;24781;-47
2022/06/18 10:16:41;;;;;;;1.90;1.80;;;;;;;;;;5053400;28;24423;-46
2022/06/18 10:19:21;;;;;;;2.20;2.00;;;;;;;;;;5056557;28;24908;-47
2022/06/18 10:21:50;;;;;;;2.53;2.07;;;;;;;;;;5066615;28;24386;-47
2022/06/18 10:24:28;;;;;;;2.20;1.85;;;;;;;;;;5065769;28;24430;-46
2022/06/18 10:27:02;;;;;;;2.20;2.00;;;;;;;;;;5065544;28;24445;-46
2022/06/18 10:29:36;;;;;;;2.20;2.00;;;;;;;;;;5065895;28;25051;-47
2022/06/18 10:32:01;;;;;;;2.10;1.92;;;;;;;;;;5065755;28;24518;-46
2022/06/18 10:34:51;;;;;;;2.70;1.90;;;;;;;;;;5065408;28;24509;-46
2022/06/18 10:37:30;;;;;;;2.13;1.85;;;;;;;;;;5066910;28;24506;-47
2022/06/18 10:40:02;;;;;;;3.10;1.70;;;;;;;;;;5065941;28;24426;-46
2022/06/18 10:42:48;;;;;;;2.43;2.13;;;;;;;;;;5065176;28;24543;-47
2022/06/18 10:45:42;;;;;;;3.03;2.10;;;;;;;;;;5059439;28;24442;-47
2022/06/18 10:48:08;;;;;;;3.38;2.28;;;;;;;;;;5050958;28;24971;-46
2022/06/18 10:50:41;;;;;;;2.77;1.80;;;;;;;;;;5067165;28;24414;-47
2022/06/18 10:53:11;;;;;;;2.40;1.90;;;;;;;;;;5069850;28;24476;-47
2022/06/18 10:55:37;;;;;;;2.33;2.00;;;;;;;;;;5065848;28;24415;-46
2022/06/18 10:58:07;;;;;;;2.63;2.00;;;;;;;;;;5070060;28;24851;-46
2022/06/18 11:00:32;;;;;;;2.90;2.03;;;;;;;;;;5067186;28;24415;-46
2022/06/18 11:02:59;;;;;;;4.10;1.80;;;;;;;;;;5071872;28;24772;-47
2022/06/18 11:05:37;;;;;;;1.80;1.70;;;;;;;;;;5069033;28;24422;-47
2022/06/18 11:08:18;;;;;;;3.40;2.10;;;;;;;;;;5067522;28;24987;-47
2022/06/18 11:10:49;;;;;;;2.27;1.70;;;;;;;;;;5067684;28;24422;-45
2022/06/18 11:13:19;;;;;;;2.75;2.30;;;;;;;;;;5066013;28;24502;-47
2022/06/18 11:15:44;;;;;;;3.67;2.40;;;;;;;;;;5065760;28;24446;-46
2022/06/18 11:18:16;;;;;;;4.07;2.33;;;;;;;;;;5064742;28;24996;-45
2022/06/18 11:20:54;;;;;;;5.22;2.45;;;;;;;;;;5060441;28;24431;-46
2022/06/18 11:23:20;;;;;;;3.95;2.40;;;;;;;;;;5078514;28;24871;-47
2022/06/18 11:25:51;;;;;;;4.95;2.40;;;;;;;;;;5070904;28;24445;-46
2022/06/18 11:28:21;;;;;;;4.28;2.20;;;;;;;;;;5079934;28;24535;-47
2022/06/18 11:30:47;;;;;;;6.55;3.50;;;;;;;;;;5078716;28;24426;-46
2022/06/18 11:33:20;;;;;;;3.45;2.20;;;;;;;;;;5074888;28;24432;-47
2022/06/18 11:35:50;;;;;;;5.15;2.40;;;;;;;;;;5080228;28;24431;-46
2022/06/18 11:38:29;;;;;;;5.47;2.80;;;;;;;;;;5084929;28;24819;-46
2022/06/18 11:40:55;;;;;;;3.55;2.60;;;;;;;;;;5079354;28;25043;-47
2022/06/18 11:43:29;;;;;;;3.70;2.30;;;;;;;;;;5088181;28;24434;-47
2022/06/18 11:45:58;;;;;;;6.68;2.90;;;;;;;;;;5073732;28;24457;-47
2022/06/18 11:48:27;;;;;;;5.45;2.60;;;;;;;;;;5085665;28;24425;-45
2022/06/18 11:50:57;;;;;;;5.53;2.88;;;;;;;;;;5080268;28;24509;-46
2022/06/18 11:53:32;;;;;;;3.20;2.72;;;;;;;;;;5067263;28;24518;-46
2022/06/18 11:55:57;;;;;;;5.45;2.38;;;;;;;;;;5072338;28;24430;-45
2022/06/18 11:58:23;;;;;;;4.38;2.50;;;;;;;;;;5075631;28;25220;-45
2022/06/18 12:00:48;;;;;;;6.00;3.20;;;;;;;;;;5078753;28;24562;-46
2022/06/18 12:03:24;;;;;;;3.22;2.70;;;;;;;;;;5081622;28;24426;-47
2022/06/18 12:05:57;;;;;;;4.97;2.70;;;;;;;;;;5066194;28;25061;-47
2022/06/18 12:08:23;;;;;;;4.28;2.70;;;;;;;;;;5078181;28;24414;-46
2022/06/18 12:11:03;;;;;;;5.35;2.50;;;;;;;;;;5080825;28;24428;-47
2022/06/18 12:13:28;;;;;;;5.70;2.60;;;;;;;;;;5072866;28;24525;-46
2022/06/18 12:16:00;;;;;;;4.05;2.80;;;;;;;;;;5087528;28;24430;-45
2022/06/18 12:18:33;;;;;;;3.92;2.80;;;;;;;;;;5061766;28;24423;-46
2022/06/18 12:21:13;;;;;;;2.92;2.70;;;;;;;;;;5084601;28;20825;-46
2022/06/18 12:23:45;;;;;;;3.92;2.60;;;;;;;;;;5074429;28;24525;-46
2022/06/18 12:26:40;;;;;;;3.78;2.65;;;;;;;;;;5066962;28;24447;-46
2022/06/18 12:29:18;;;;;;;3.55;2.50;;;;;;;;;;5059656;28;24549;-46
2022/06/18 12:31:47;;;;;;;3.90;2.35;;;;;;;;;;5065882;28;24769;-46
2022/06/18 12:34:15;;;;;;;4.80;2.70;;;;;;;;;;5070092;28;24840;-46
2022/06/18 12:37:09;;;;;;;3.70;2.85;;;;;;;;;;5070531;28;24990;-46
2022/06/18 12:39:37;;;;;;;6.00;2.88;;;;;;;;;;5046883;28;25035;-46
2022/06/18 12:42:32;;;;;;;4.20;2.75;;;;;;;;;;5062963;28;24479;-47
2022/06/18 12:45:09;;;;;;;5.93;3.15;;;;;;;;;;5052884;28;24475;-47
2022/06/18 12:47:40;;;;;;;5.68;3.08;;;;;;;;;;5080360;28;25262;-46
2022/06/18 12:50:06;;;;;;;4.45;2.70;;;;;;;;;;5070870;28;21291;-46
2022/06/18 12:52:31;;;;;;;5.07;2.90;;;;;;;;;;5086521;28;24425;-46
2022/06/18 12:55:02;;;;;;;4.78;2.80;;;;;;;;;;5068814;28;24469;-47
2022/06/18 12:57:42;;;;;;;3.47;2.80;;;;;;;;;;5084146;28;24435;-47
2022/06/18 13:00:18;;;;;;;5.68;2.90;;;;;;;;;;5073539;28;20751;-47
2022/06/18 13:02:52;;;;;;;5.80;2.67;;;;;;;;;;5085984;28;20743;-47
2022/06/18 13:05:29;;;;;;;4.97;2.92;;;;;;;;;;5069287;28;24505;-47
2022/06/18 13:08:00;;;;;;;4.65;2.67;;;;;;;;;;5066603;28;20783;-48
2022/06/18 13:10:26;;;;;;;6.50;2.80;;;;;;;;;;5076875;28;20776;-47
2022/06/18 13:13:02;;;;;;;7.05;3.30;;;;;;;;;;5068081;28;24468;-47
2022/06/18 13:15:40;;;;;;;6.20;3.50;;;;;;;;;;5075856;28;24494;-47
2022/06/18 13:18:18;;;;;;;6.80;3.00;;;;;;;;;;5066916;28;24964;-48
2022/06/18 13:20:46;;;;;;;5.07;3.23;;;;;;;;;;5065809;28;24521;-47
2022/06/18 13:28:50;;;;;;;6.93;3.10;;;;;;;;;;5065404;28;20752;-46
2022/06/18 13:31:25;;;;;;;7.18;3.35;;;;;;;;;;5060354;28;24481;-45
2022/06/18 13:34:03;;;;;;;6.63;2.92;;;;;;;;;;5068488;28;20754;-47
2022/06/18 13:36:51;;;;;;;6.55;3.20;;;;;;;;;;5059440;28;20815;-46
2022/06/18 13:39:35;;;;;;;3.90;2.90;;;;;;;;;;5062885;28;24469;-46
2022/06/18 13:42:03;;;;;;;6.50;2.85;;;;;;;;;;5052883;28;24427;-46
2022/06/18 13:44:47;;;;;;;6.60;3.20;;;;;;;;;;5067017;28;24504;-46
2022/06/18 13:47:17;;;;;;;5.33;3.03;;;;;;;;;;5059628;28;20821;-46
2022/06/18 13:50:01;;;;;;;4.90;2.92;;;;;;;;;;5054718;28;21456;-46
2022/06/18 13:52:40;;;;;;;7.78;3.22;;;;;;;;;;5058152;28;24419;-46
2022/06/18 13:55:06;;;;;;;7.70;3.15;;;;;;;;;;5067547;28;20757;-46
2022/06/18 13:57:36;;;;;;;9.10;3.08;;;;;;;;;;5063901;28;24777;-46
2022/06/18 14:00:03;;;;;;;5.63;3.22;;;;;;;;;;5047267;28;24422;-46
2022/06/18 14:02:32;;;;;;;5.93;2.90;;;;;;;;;;5063874;28;24429;-46
2022/06/18 14:05:04;;;;;;;7.72;3.50;;;;;;;;;;5068189;28;20835;-46
2022/06/18 14:07:30;;;;;;;8.88;3.35;;;;;;;;;;5064647;28;20769;-47
2022/06/18 14:09:56;;;;;;;5.88;3.35;;;;;;;;;;5067021;28;24401;-46
2022/06/18 14:12:23;;;;;;;6.50;3.10;;;;;;;;;;5065977;28;24506;-46
2022/06/18 14:14:48;;;;;;;8.47;3.17;;;;;;;;;;5068689;28;24755;-46
2022/06/18 14:17:15;;;;;;;8.90;3.90;;;;;;;;;;5063206;28;25068;-46
2022/06/18 14:19:41;;;;;;;8.60;3.75;;;;;;;;;;5059579;28;25081;-46
2022/06/18 14:22:19;;;;;;;6.80;3.00;;;;;;;;;;5065901;28;24514;-46
2022/06/18 14:24:46;;;;;;;5.05;2.90;;;;;;;;;;5067778;28;24441;-46
2022/06/18 14:27:19;;;;;;;8.82;3.33;;;;;;;;;;5059338;28;24446;-47
2022/06/18 14:29:44;;;;;;;9.10;3.60;;;;;;;;;;5066592;28;20764;-46
2022/06/18 14:32:15;;;;;;;9.38;3.20;;;;;;;;;;5051340;28;24411;-46
2022/06/18 14:34:48;;;;;;;5.88;3.80;;;;;;;;;;5047158;28;24415;-46
2022/06/18 14:37:14;;;;;;;6.75;3.25;;;;;;;;;;5053174;28;20768;-46
2022/06/18 14:39:46;;;;;;;8.70;3.40;;;;;;;;;;5065511;28;24489;-46
2022/06/18 14:42:16;;;;;;;7.72;3.20;;;;;;;;;;5053411;28;24455;-46
2022/06/18 14:44:45;;;;;;;6.82;3.20;;;;;;;;;;5064810;28;24512;-47
2022/06/18 14:47:19;;;;;;;6.55;3.60;;;;;;;;;;5068452;28;24997;-46
2022/06/18 14:49:50;;;;;;;6.18;3.22;;;;;;;;;;5065331;28;25542;-46
2022/06/18 14:52:24;;;;;;;6.32;3.22;;;;;;;;;;5046485;28;24537;-47
2022/06/18 14:54:49;;;;;;;4.17;2.90;;;;;;;;;;5046238;28;24427;-46
2022/06/18 14:57:25;;;;;;;6.80;3.50;;;;;;;;;;5046518;28;24476;-46
2022/06/18 15:00:10;;;;;;;10.25;3.88;;;;;;;;;;5063260;28;24426;-46
2022/06/18 15:02:51;;;;;;;8.30;3.30;;;;;;;;;;5047524;28;24469;-47
2022/06/18 15:05:24;;;;;;;5.15;2.90;;;;;;;;;;5047798;28;21384;-46
2022/06/18 15:07:50;;;;;;;5.63;3.20;;;;;;;;;;5055542;28;20801;-46
2022/06/18 15:10:22;;;;;;;7.65;3.50;;;;;;;;;;5046524;28;24457;-46
2022/06/18 15:12:51;;;;;;;7.43;3.33;;;;;;;;;;5065061;28;24450;-46
2022/06/18 15:15:21;;;;;;;5.45;3.00;;;;;;;;;;5066792;28;20710;-46